Ana Sayfa
METAR-TAF:

METAR-TAF

Havaalanları :

Aydın Çıldır Havalimanı

Aydın, Türkiye

Enlem: 37-48-54N, Boylam: 27-53-21E, yükseklik: 31 m

Güncel hava durumu gözlemi

Rapor saat 10:50 UTC de 4 saat ve 47 dakika önce yapıldı.
Rüzgar değişken yönden 4 kt
Sıcaklık 29°C
Nem 43%
Basınç 1008 hPa
Görüş mesafesi 10 km veya daha fazla
3500 ft yükseklikte az bulutlu
10000 ft yükseklikte parçalı bulutlu

METAR: LTBD 261050Z VRB04KT 9999 FEW035 SCT100 29/15 Q1008

Saat: 18:37 (15:37 UTC)


TAF: eksik

4.000'den fazla havaalanı için hava durumu gözlemleri ve tahminleri (METAR ve TAF raporları).

Kullanılabilir istasyonlar harita üzerinde sarı ve kırmızı noktalarla gösterilir.

İstasyonun adını görmek için fareyi noktanın üzerinde gezdirin.

Sonrasında hava gözlem ve tahminlerini görmek için tıklayın.

Haritayı değiştirmek için: yaklaştırmak için siyah artı işaretli yeşil düğmeye ve uzaklaştırmak için de eksi işaretli düğmeye hızla tıklayın; bitişik haritalar için yeşil okları kullanın.


METAR-TAF: